sensor_id;sensor_type;location;lat;lon;timestamp;temperature;humidity
52575;DHT22;38468;48.114;-1.684;2023-05-10T00:01:22;12.70;71.50
52575;DHT22;38468;48.114;-1.684;2023-05-10T00:03:23;12.80;71.40
52575;DHT22;38468;48.114;-1.684;2023-05-10T00:05:24;12.70;71.60
52575;DHT22;38468;48.114;-1.684;2023-05-10T00:07:24;12.70;71.50
52575;DHT22;38468;48.114;-1.684;2023-05-10T00:09:25;12.60;71.70
52575;DHT22;38468;48.114;-1.684;2023-05-10T00:11:26;12.60;71.80
52575;DHT22;38468;48.114;-1.684;2023-05-10T00:13:27;12.60;71.60
52575;DHT22;38468;48.114;-1.684;2023-05-10T00:15:27;12.70;71.60
52575;DHT22;38468;48.114;-1.684;2023-05-10T00:17:28;12.70;71.50
52575;DHT22;38468;48.114;-1.684;2023-05-10T00:19:29;12.60;71.60
52575;DHT22;38468;48.114;-1.684;2023-05-10T00:21:29;12.50;72.00
52575;DHT22;38468;48.114;-1.684;2023-05-10T00:23:30;12.50;71.90
52575;DHT22;38468;48.114;-1.684;2023-05-10T00:25:31;12.50;72.00
52575;DHT22;38468;48.114;-1.684;2023-05-10T00:27:31;12.50;72.00
52575;DHT22;38468;48.114;-1.684;2023-05-10T00:29:32;12.50;72.10
52575;DHT22;38468;48.114;-1.684;2023-05-10T00:31:34;12.50;72.00
52575;DHT22;38468;48.114;-1.684;2023-05-10T00:33:34;12.50;72.10
52575;DHT22;38468;48.114;-1.684;2023-05-10T00:35:35;12.40;72.60
52575;DHT22;38468;48.114;-1.684;2023-05-10T00:37:36;12.40;72.70
52575;DHT22;38468;48.114;-1.684;2023-05-10T00:39:36;12.40;72.70
52575;DHT22;38468;48.114;-1.684;2023-05-10T00:41:37;12.50;72.70
52575;DHT22;38468;48.114;-1.684;2023-05-10T00:43:38;12.40;72.60
52575;DHT22;38468;48.114;-1.684;2023-05-10T00:45:40;12.40;72.60
52575;DHT22;38468;48.114;-1.684;2023-05-10T00:47:40;12.40;72.80
52575;DHT22;38468;48.114;-1.684;2023-05-10T00:49:41;12.40;73.00
52575;DHT22;38468;48.114;-1.684;2023-05-10T00:51:42;12.40;72.90
52575;DHT22;38468;48.114;-1.684;2023-05-10T00:53:48;12.40;72.90
52575;DHT22;38468;48.114;-1.684;2023-05-10T00:55:49;12.40;72.90
52575;DHT22;38468;48.114;-1.684;2023-05-10T00:57:52;12.40;72.90
52575;DHT22;38468;48.114;-1.684;2023-05-10T00:59:53;12.30;73.10
52575;DHT22;38468;48.114;-1.684;2023-05-10T01:01:54;12.40;73.00
52575;DHT22;38468;48.114;-1.684;2023-05-10T01:03:55;12.40;72.80
52575;DHT22;38468;48.114;-1.684;2023-05-10T01:05:56;12.30;73.10
52575;DHT22;38468;48.114;-1.684;2023-05-10T01:07:56;12.30;73.10
52575;DHT22;38468;48.114;-1.684;2023-05-10T01:09:57;12.30;73.20
52575;DHT22;38468;48.114;-1.684;2023-05-10T01:12:00;12.30;73.30
52575;DHT22;38468;48.114;-1.684;2023-05-10T01:14:02;12.30;73.00
52575;DHT22;38468;48.114;-1.684;2023-05-10T01:16:04;12.30;72.90
52575;DHT22;38468;48.114;-1.684;2023-05-10T01:18:05;12.20;73.40
52575;DHT22;38468;48.114;-1.684;2023-05-10T01:20:07;12.20;73.50
52575;DHT22;38468;48.114;-1.684;2023-05-10T01:32:24;12.20;73.50
52575;DHT22;38468;48.114;-1.684;2023-05-10T01:37:07;12.20;73.70
52575;DHT22;38468;48.114;-1.684;2023-05-10T01:39:23;12.10;73.50
52575;DHT22;38468;48.114;-1.684;2023-05-10T01:43:53;12.10;73.70
52575;DHT22;38468;48.114;-1.684;2023-05-10T01:46:07;12.10;73.60
52575;DHT22;38468;48.114;-1.684;2023-05-10T01:48:14;12.20;73.60
52575;DHT22;38468;48.114;-1.684;2023-05-10T01:50:22;12.10;73.60
52575;DHT22;38468;48.114;-1.684;2023-05-10T01:52:33;12.00;73.90
52575;DHT22;38468;48.114;-1.684;2023-05-10T01:54:44;12.00;74.10
52575;DHT22;38468;48.114;-1.684;2023-05-10T01:56:52;12.00;74.00
52575;DHT22;38468;48.114;-1.684;2023-05-10T01:58:55;12.00;74.10
52575;DHT22;38468;48.114;-1.684;2023-05-10T02:00:58;12.00;74.10
52575;DHT22;38468;48.114;-1.684;2023-05-10T02:03:02;12.00;74.30
52575;DHT22;38468;48.114;-1.684;2023-05-10T02:05:09;11.90;74.50
52575;DHT22;38468;48.114;-1.684;2023-05-10T02:07:12;11.90;74.60
52575;DHT22;38468;48.114;-1.684;2023-05-10T02:09:14;11.90;74.50
52575;DHT22;38468;48.114;-1.684;2023-05-10T02:11:18;12.00;74.70
52575;DHT22;38468;48.114;-1.684;2023-05-10T02:13:19;11.90;74.80
52575;DHT22;38468;48.114;-1.684;2023-05-10T02:15:22;12.00;74.40
52575;DHT22;38468;48.114;-1.684;2023-05-10T02:17:25;11.90;74.40
52575;DHT22;38468;48.114;-1.684;2023-05-10T02:19:28;12.00;74.80
52575;DHT22;38468;48.114;-1.684;2023-05-10T02:21:30;11.90;74.80
52575;DHT22;38468;48.114;-1.684;2023-05-10T02:23:31;11.90;74.80
52575;DHT22;38468;48.114;-1.684;2023-05-10T02:25:32;11.90;74.80
52575;DHT22;38468;48.114;-1.684;2023-05-10T02:27:34;11.80;75.10
52575;DHT22;38468;48.114;-1.684;2023-05-10T02:29:36;11.80;75.20
52575;DHT22;38468;48.114;-1.684;2023-05-10T02:31:37;11.80;75.10
52575;DHT22;38468;48.114;-1.684;2023-05-10T02:33:39;11.80;75.30
52575;DHT22;38468;48.114;-1.684;2023-05-10T02:35:41;11.80;75.10
52575;DHT22;38468;48.114;-1.684;2023-05-10T02:37:43;11.80;75.30
52575;DHT22;38468;48.114;-1.684;2023-05-10T02:39:46;11.80;75.30
52575;DHT22;38468;48.114;-1.684;2023-05-10T02:41:48;11.80;75.40
52575;DHT22;38468;48.114;-1.684;2023-05-10T02:43:55;11.90;75.50
52575;DHT22;38468;48.114;-1.684;2023-05-10T02:45:57;11.80;75.50
52575;DHT22;38468;48.114;-1.684;2023-05-10T02:47:58;11.80;75.20
52575;DHT22;38468;48.114;-1.684;2023-05-10T02:50:00;11.80;74.90
52575;DHT22;38468;48.114;-1.684;2023-05-10T02:52:01;11.80;75.20
52575;DHT22;38468;48.114;-1.684;2023-05-10T02:54:12;11.80;75.30
52575;DHT22;38468;48.114;-1.684;2023-05-10T02:56:20;11.80;75.40
52575;DHT22;38468;48.114;-1.684;2023-05-10T02:58:22;11.70;75.50
52575;DHT22;38468;48.114;-1.684;2023-05-10T03:00:24;11.60;75.60
52575;DHT22;38468;48.114;-1.684;2023-05-10T03:02:25;11.70;75.60
52575;DHT22;38468;48.114;-1.684;2023-05-10T03:04:26;11.70;75.50
52575;DHT22;38468;48.114;-1.684;2023-05-10T03:06:27;11.70;75.50
52575;DHT22;38468;48.114;-1.684;2023-05-10T03:08:29;11.60;75.80
52575;DHT22;38468;48.114;-1.684;2023-05-10T03:10:30;11.60;76.10
52575;DHT22;38468;48.114;-1.684;2023-05-10T03:15:18;11.70;75.70
52575;DHT22;38468;48.114;-1.684;2023-05-10T03:19:27;11.60;75.60
52575;DHT22;38468;48.114;-1.684;2023-05-10T03:21:30;11.60;75.90
52575;DHT22;38468;48.114;-1.684;2023-05-10T03:23:42;11.60;75.70
52575;DHT22;38468;48.114;-1.684;2023-05-10T03:25:44;11.60;76.10
52575;DHT22;38468;48.114;-1.684;2023-05-10T03:27:46;11.50;76.20
52575;DHT22;38468;48.114;-1.684;2023-05-10T03:29:47;11.50;76.30
52575;DHT22;38468;48.114;-1.684;2023-05-10T03:31:49;11.50;76.30
52575;DHT22;38468;48.114;-1.684;2023-05-10T03:33:51;11.50;76.40
52575;DHT22;38468;48.114;-1.684;2023-05-10T03:35:52;11.50;76.10
52575;DHT22;38468;48.114;-1.684;2023-05-10T03:37:52;11.50;76.30
52575;DHT22;38468;48.114;-1.684;2023-05-10T03:39:53;11.50;76.50
52575;DHT22;38468;48.114;-1.684;2023-05-10T03:41:54;11.50;76.50
52575;DHT22;38468;48.114;-1.684;2023-05-10T03:43:54;11.50;76.30
52575;DHT22;38468;48.114;-1.684;2023-05-10T03:45:55;11.60;76.60
52575;DHT22;38468;48.114;-1.684;2023-05-10T03:47:56;11.50;76.50
52575;DHT22;38468;48.114;-1.684;2023-05-10T03:49:57;11.60;76.80
52575;DHT22;38468;48.114;-1.684;2023-05-10T03:51:58;11.60;76.50
52575;DHT22;38468;48.114;-1.684;2023-05-10T03:53:58;11.70;76.90
52575;DHT22;38468;48.114;-1.684;2023-05-10T03:55:59;11.70;76.80
52575;DHT22;38468;48.114;-1.684;2023-05-10T03:57:59;11.70;76.80
52575;DHT22;38468;48.114;-1.684;2023-05-10T04:00:00;11.60;77.10
52575;DHT22;38468;48.114;-1.684;2023-05-10T04:02:01;11.70;76.60
52575;DHT22;38468;48.114;-1.684;2023-05-10T04:04:01;11.70;76.80
52575;DHT22;38468;48.114;-1.684;2023-05-10T04:06:02;11.70;76.70
52575;DHT22;38468;48.114;-1.684;2023-05-10T04:08:03;11.70;76.80
52575;DHT22;38468;48.114;-1.684;2023-05-10T04:10:05;11.70;76.60
52575;DHT22;38468;48.114;-1.684;2023-05-10T04:12:06;11.60;76.50
52575;DHT22;38468;48.114;-1.684;2023-05-10T04:14:06;11.70;76.40
52575;DHT22;38468;48.114;-1.684;2023-05-10T04:16:07;11.70;76.60
52575;DHT22;38468;48.114;-1.684;2023-05-10T04:18:08;11.70;76.70
52575;DHT22;38468;48.114;-1.684;2023-05-10T04:20:09;11.60;77.20
52575;DHT22;38468;48.114;-1.684;2023-05-10T04:22:09;11.60;77.30
52575;DHT22;38468;48.114;-1.684;2023-05-10T04:24:10;11.70;77.10
52575;DHT22;38468;48.114;-1.684;2023-05-10T04:26:11;11.60;77.30
52575;DHT22;38468;48.114;-1.684;2023-05-10T04:28:12;11.60;77.30
52575;DHT22;38468;48.114;-1.684;2023-05-10T04:30:13;11.70;77.20
52575;DHT22;38468;48.114;-1.684;2023-05-10T04:32:13;11.60;77.20
52575;DHT22;38468;48.114;-1.684;2023-05-10T04:34:14;11.60;77.30
52575;DHT22;38468;48.114;-1.684;2023-05-10T04:36:15;11.60;77.30
52575;DHT22;38468;48.114;-1.684;2023-05-10T04:38:15;11.60;77.30
52575;DHT22;38468;48.114;-1.684;2023-05-10T04:40:16;11.70;77.00
52575;DHT22;38468;48.114;-1.684;2023-05-10T04:42:16;11.60;77.30
52575;DHT22;38468;48.114;-1.684;2023-05-10T04:44:17;11.50;77.50
52575;DHT22;38468;48.114;-1.684;2023-05-10T04:46:18;11.50;77.80
52575;DHT22;38468;48.114;-1.684;2023-05-10T04:48:18;11.50;77.80
52575;DHT22;38468;48.114;-1.684;2023-05-10T04:50:19;11.60;77.80
52575;DHT22;38468;48.114;-1.684;2023-05-10T04:52:20;11.60;77.80
52575;DHT22;38468;48.114;-1.684;2023-05-10T04:54:20;11.60;78.00
52575;DHT22;38468;48.114;-1.684;2023-05-10T04:56:21;11.60;78.50
52575;DHT22;38468;48.114;-1.684;2023-05-10T04:58:22;11.60;78.60
52575;DHT22;38468;48.114;-1.684;2023-05-10T05:00:23;11.70;78.30
52575;DHT22;38468;48.114;-1.684;2023-05-10T05:02:25;11.70;78.40
52575;DHT22;38468;48.114;-1.684;2023-05-10T05:04:25;11.70;78.60
52575;DHT22;38468;48.114;-1.684;2023-05-10T05:06:26;11.70;78.30
52575;DHT22;38468;48.114;-1.684;2023-05-10T05:08:27;11.70;78.30
52575;DHT22;38468;48.114;-1.684;2023-05-10T05:10:28;11.80;78.10
52575;DHT22;38468;48.114;-1.684;2023-05-10T05:12:28;11.80;78.20
52575;DHT22;38468;48.114;-1.684;2023-05-10T05:14:29;11.80;78.10
52575;DHT22;38468;48.114;-1.684;2023-05-10T05:16:30;11.80;78.50
52575;DHT22;38468;48.114;-1.684;2023-05-10T05:18:31;11.80;78.40
52575;DHT22;38468;48.114;-1.684;2023-05-10T05:20:33;11.90;78.50
52575;DHT22;38468;48.114;-1.684;2023-05-10T05:22:35;11.90;78.40
52575;DHT22;38468;48.114;-1.684;2023-05-10T05:24:36;11.90;78.60
52575;DHT22;38468;48.114;-1.684;2023-05-10T05:26:39;11.90;78.40
52575;DHT22;38468;48.114;-1.684;2023-05-10T05:28:40;11.90;78.30
52575;DHT22;38468;48.114;-1.684;2023-05-10T05:30:40;11.90;78.00
52575;DHT22;38468;48.114;-1.684;2023-05-10T05:32:42;12.00;78.10
52575;DHT22;38468;48.114;-1.684;2023-05-10T05:34:44;11.90;78.30
52575;DHT22;38468;48.114;-1.684;2023-05-10T05:36:45;11.90;78.20
52575;DHT22;38468;48.114;-1.684;2023-05-10T05:38:46;12.00;78.20
52575;DHT22;38468;48.114;-1.684;2023-05-10T05:40:47;12.00;78.10
52575;DHT22;38468;48.114;-1.684;2023-05-10T05:42:47;12.00;78.10
52575;DHT22;38468;48.114;-1.684;2023-05-10T05:44:48;12.00;78.10
52575;DHT22;38468;48.114;-1.684;2023-05-10T05:46:49;12.10;77.90
52575;DHT22;38468;48.114;-1.684;2023-05-10T05:48:49;12.10;78.00
52575;DHT22;38468;48.114;-1.684;2023-05-10T05:50:54;12.10;77.90
52575;DHT22;38468;48.114;-1.684;2023-05-10T05:52:55;12.20;77.90
52575;DHT22;38468;48.114;-1.684;2023-05-10T05:54:57;12.10;77.70
52575;DHT22;38468;48.114;-1.684;2023-05-10T05:56:58;12.10;77.70
52575;DHT22;38468;48.114;-1.684;2023-05-10T05:59:00;12.20;77.70
52575;DHT22;38468;48.114;-1.684;2023-05-10T06:01:01;12.20;77.80
52575;DHT22;38468;48.114;-1.684;2023-05-10T06:03:01;12.30;77.60
52575;DHT22;38468;48.114;-1.684;2023-05-10T06:05:02;12.30;77.40
52575;DHT22;38468;48.114;-1.684;2023-05-10T06:07:03;12.30;77.50
52575;DHT22;38468;48.114;-1.684;2023-05-10T06:09:04;12.40;77.60
52575;DHT22;38468;48.114;-1.684;2023-05-10T06:11:04;12.40;77.50
52575;DHT22;38468;48.114;-1.684;2023-05-10T06:13:05;12.40;77.60
52575;DHT22;38468;48.114;-1.684;2023-05-10T06:15:06;12.50;77.60
52575;DHT22;38468;48.114;-1.684;2023-05-10T06:17:07;12.50;77.50
52575;DHT22;38468;48.114;-1.684;2023-05-10T06:19:08;12.50;77.60
52575;DHT22;38468;48.114;-1.684;2023-05-10T06:21:08;12.60;77.90
52575;DHT22;38468;48.114;-1.684;2023-05-10T06:23:09;12.60;78.10
52575;DHT22;38468;48.114;-1.684;2023-05-10T06:25:10;12.60;78.20
52575;DHT22;38468;48.114;-1.684;2023-05-10T06:27:11;12.70;78.20
52575;DHT22;38468;48.114;-1.684;2023-05-10T06:29:12;12.70;77.80
52575;DHT22;38468;48.114;-1.684;2023-05-10T06:31:13;12.50;78.00
52575;DHT22;38468;48.114;-1.684;2023-05-10T06:33:13;12.60;78.00
52575;DHT22;38468;48.114;-1.684;2023-05-10T06:35:14;12.50;78.00
52575;DHT22;38468;48.114;-1.684;2023-05-10T06:37:15;12.50;77.90
52575;DHT22;38468;48.114;-1.684;2023-05-10T06:39:15;12.50;77.90
52575;DHT22;38468;48.114;-1.684;2023-05-10T06:41:16;12.50;77.90
52575;DHT22;38468;48.114;-1.684;2023-05-10T06:43:17;12.70;77.80
52575;DHT22;38468;48.114;-1.684;2023-05-10T06:45:17;12.60;77.80
52575;DHT22;38468;48.114;-1.684;2023-05-10T06:47:18;12.70;77.80
52575;DHT22;38468;48.114;-1.684;2023-05-10T06:49:19;13.00;77.60
52575;DHT22;38468;48.114;-1.684;2023-05-10T06:51:19;13.00;77.30
52575;DHT22;38468;48.114;-1.684;2023-05-10T06:53:21;13.10;76.90
52575;DHT22;38468;48.114;-1.684;2023-05-10T06:55:22;13.20;76.90
52575;DHT22;38468;48.114;-1.684;2023-05-10T06:57:22;13.30;76.90
52575;DHT22;38468;48.114;-1.684;2023-05-10T06:59:23;13.50;76.70
52575;DHT22;38468;48.114;-1.684;2023-05-10T07:01:24;13.90;76.90
52575;DHT22;38468;48.114;-1.684;2023-05-10T07:03:25;14.10;75.50
52575;DHT22;38468;48.114;-1.684;2023-05-10T07:05:25;14.30;75.10
52575;DHT22;38468;48.114;-1.684;2023-05-10T07:07:28;14.50;74.90
52575;DHT22;38468;48.114;-1.684;2023-05-10T07:09:29;14.50;73.70
52575;DHT22;38468;48.114;-1.684;2023-05-10T07:11:30;14.50;73.00
52575;DHT22;38468;48.114;-1.684;2023-05-10T07:13:31;14.50;72.70
52575;DHT22;38468;48.114;-1.684;2023-05-10T07:15:32;14.60;73.00
52575;DHT22;38468;48.114;-1.684;2023-05-10T07:17:33;14.70;73.50
52575;DHT22;38468;48.114;-1.684;2023-05-10T07:19:34;14.70;72.90
52575;DHT22;38468;48.114;-1.684;2023-05-10T07:21:36;14.60;73.00
52575;DHT22;38468;48.114;-1.684;2023-05-10T07:23:36;14.70;73.30
52575;DHT22;38468;48.114;-1.684;2023-05-10T07:25:37;14.80;72.90
52575;DHT22;38468;48.114;-1.684;2023-05-10T07:27:38;14.70;72.00
52575;DHT22;38468;48.114;-1.684;2023-05-10T07:29:38;14.60;72.70
52575;DHT22;38468;48.114;-1.684;2023-05-10T07:31:39;14.70;72.70
52575;DHT22;38468;48.114;-1.684;2023-05-10T07:33:42;14.60;72.40
52575;DHT22;38468;48.114;-1.684;2023-05-10T07:35:43;14.60;73.00
52575;DHT22;38468;48.114;-1.684;2023-05-10T07:37:43;14.60;72.70
52575;DHT22;38468;48.114;-1.684;2023-05-10T07:39:44;14.60;72.70
52575;DHT22;38468;48.114;-1.684;2023-05-10T07:41:45;14.50;72.30
52575;DHT22;38468;48.114;-1.684;2023-05-10T07:43:45;14.50;72.50
52575;DHT22;38468;48.114;-1.684;2023-05-10T07:45:46;14.40;72.70
52575;DHT22;38468;48.114;-1.684;2023-05-10T07:47:46;14.40;72.50
52575;DHT22;38468;48.114;-1.684;2023-05-10T07:49:49;14.40;73.00
52575;DHT22;38468;48.114;-1.684;2023-05-10T07:51:49;14.40;73.00
52575;DHT22;38468;48.114;-1.684;2023-05-10T07:53:50;14.50;72.80
52575;DHT22;38468;48.114;-1.684;2023-05-10T07:55:53;14.50;72.80
52575;DHT22;38468;48.114;-1.684;2023-05-10T07:57:54;14.50;73.20
52575;DHT22;38468;48.114;-1.684;2023-05-10T07:59:55;14.40;73.30
52575;DHT22;38468;48.114;-1.684;2023-05-10T08:01:56;14.40;73.40
52575;DHT22;38468;48.114;-1.684;2023-05-10T08:03:56;14.40;73.70
52575;DHT22;38468;48.114;-1.684;2023-05-10T08:05:57;14.40;73.80
52575;DHT22;38468;48.114;-1.684;2023-05-10T08:07:57;14.40;73.70
52575;DHT22;38468;48.114;-1.684;2023-05-10T08:09:59;14.30;73.80
52575;DHT22;38468;48.114;-1.684;2023-05-10T08:12:00;14.30;74.10
52575;DHT22;38468;48.114;-1.684;2023-05-10T08:14:01;14.30;74.40
52575;DHT22;38468;48.114;-1.684;2023-05-10T08:16:01;14.30;74.40
52575;DHT22;38468;48.114;-1.684;2023-05-10T08:18:02;14.30;74.70
52575;DHT22;38468;48.114;-1.684;2023-05-10T08:20:04;14.40;74.40
52575;DHT22;38468;48.114;-1.684;2023-05-10T08:22:05;14.30;74.20
52575;DHT22;38468;48.114;-1.684;2023-05-10T08:24:06;14.40;74.40
52575;DHT22;38468;48.114;-1.684;2023-05-10T08:26:07;14.40;74.50
52575;DHT22;38468;48.114;-1.684;2023-05-10T08:28:08;14.40;74.60
52575;DHT22;38468;48.114;-1.684;2023-05-10T08:30:09;14.40;74.30
52575;DHT22;38468;48.114;-1.684;2023-05-10T08:32:09;14.40;74.00
52575;DHT22;38468;48.114;-1.684;2023-05-10T08:34:10;14.40;74.20
52575;DHT22;38468;48.114;-1.684;2023-05-10T08:36:11;14.40;74.20
52575;DHT22;38468;48.114;-1.684;2023-05-10T08:38:14;14.50;74.40
52575;DHT22;38468;48.114;-1.684;2023-05-10T08:40:15;14.50;74.60
52575;DHT22;38468;48.114;-1.684;2023-05-10T08:42:19;14.60;74.30
52575;DHT22;38468;48.114;-1.684;2023-05-10T08:44:21;14.70;74.10
52575;DHT22;38468;48.114;-1.684;2023-05-10T08:46:23;14.80;73.30
52575;DHT22;38468;48.114;-1.684;2023-05-10T08:48:24;15.10;73.10
52575;DHT22;38468;48.114;-1.684;2023-05-10T08:50:25;15.20;72.50
52575;DHT22;38468;48.114;-1.684;2023-05-10T08:52:28;15.10;72.00
52575;DHT22;38468;48.114;-1.684;2023-05-10T08:54:31;15.20;72.30
52575;DHT22;38468;48.114;-1.684;2023-05-10T08:56:32;15.30;72.10
52575;DHT22;38468;48.114;-1.684;2023-05-10T08:58:33;15.40;71.80
52575;DHT22;38468;48.114;-1.684;2023-05-10T09:00:34;15.30;71.50
52575;DHT22;38468;48.114;-1.684;2023-05-10T09:02:36;15.30;71.60
52575;DHT22;38468;48.114;-1.684;2023-05-10T09:04:37;15.30;71.80
52575;DHT22;38468;48.114;-1.684;2023-05-10T09:06:38;15.20;71.40
52575;DHT22;38468;48.114;-1.684;2023-05-10T09:08:41;15.10;72.00
52575;DHT22;38468;48.114;-1.684;2023-05-10T09:10:43;15.20;72.00
52575;DHT22;38468;48.114;-1.684;2023-05-10T09:12:44;15.20;71.90
52575;DHT22;38468;48.114;-1.684;2023-05-10T09:14:46;15.30;72.10
52575;DHT22;38468;48.114;-1.684;2023-05-10T09:16:47;15.30;71.80
52575;DHT22;38468;48.114;-1.684;2023-05-10T09:18:48;15.30;71.40
52575;DHT22;38468;48.114;-1.684;2023-05-10T09:20:49;15.30;71.80
52575;DHT22;38468;48.114;-1.684;2023-05-10T09:22:50;15.30;71.50
52575;DHT22;38468;48.114;-1.684;2023-05-10T09:25:11;15.20;71.70
52575;DHT22;38468;48.114;-1.684;2023-05-10T09:27:12;15.30;71.60
52575;DHT22;38468;48.114;-1.684;2023-05-10T09:29:13;15.30;72.10
52575;DHT22;38468;48.114;-1.684;2023-05-10T09:31:14;15.30;72.70
52575;DHT22;38468;48.114;-1.684;2023-05-10T09:33:17;15.40;72.80
52575;DHT22;38468;48.114;-1.684;2023-05-10T09:35:25;15.40;72.70
52575;DHT22;38468;48.114;-1.684;2023-05-10T09:37:30;15.40;72.30
52575;DHT22;38468;48.114;-1.684;2023-05-10T09:39:34;15.40;72.40
52575;DHT22;38468;48.114;-1.684;2023-05-10T09:41:35;15.40;72.70
52575;DHT22;38468;48.114;-1.684;2023-05-10T09:43:38;15.30;72.90
52575;DHT22;38468;48.114;-1.684;2023-05-10T09:45:41;15.30;72.90
52575;DHT22;38468;48.114;-1.684;2023-05-10T09:47:41;15.40;73.50
52575;DHT22;38468;48.114;-1.684;2023-05-10T09:49:42;15.30;73.90
52575;DHT22;38468;48.114;-1.684;2023-05-10T09:51:44;15.40;74.10
52575;DHT22;38468;48.114;-1.684;2023-05-10T09:53:45;15.50;74.30
52575;DHT22;38468;48.114;-1.684;2023-05-10T09:55:46;15.70;74.30
52575;DHT22;38468;48.114;-1.684;2023-05-10T09:57:59;15.90;74.30
52575;DHT22;38468;48.114;-1.684;2023-05-10T10:00:00;16.00;73.70
52575;DHT22;38468;48.114;-1.684;2023-05-10T10:02:01;16.00;73.20
52575;DHT22;38468;48.114;-1.684;2023-05-10T10:04:10;16.00;73.30
52575;DHT22;38468;48.114;-1.684;2023-05-10T10:06:11;16.00;73.20
52575;DHT22;38468;48.114;-1.684;2023-05-10T10:08:13;16.00;73.20
52575;DHT22;38468;48.114;-1.684;2023-05-10T10:10:14;16.10;73.40
52575;DHT22;38468;48.114;-1.684;2023-05-10T10:12:14;16.20;73.00
52575;DHT22;38468;48.114;-1.684;2023-05-10T10:14:18;16.20;72.90
52575;DHT22;38468;48.114;-1.684;2023-05-10T10:16:19;16.10;72.40
52575;DHT22;38468;48.114;-1.684;2023-05-10T10:18:20;16.00;72.50
52575;DHT22;38468;48.114;-1.684;2023-05-10T10:20:28;16.10;72.30
52575;DHT22;38468;48.114;-1.684;2023-05-10T10:22:28;16.20;72.20
52575;DHT22;38468;48.114;-1.684;2023-05-10T10:24:29;16.30;72.10
52575;DHT22;38468;48.114;-1.684;2023-05-10T10:26:30;16.40;71.80
52575;DHT22;38468;48.114;-1.684;2023-05-10T10:28:40;16.40;71.60
52575;DHT22;38468;48.114;-1.684;2023-05-10T10:30:50;16.40;71.10
52575;DHT22;38468;48.114;-1.684;2023-05-10T10:35:32;16.40;70.90
52575;DHT22;38468;48.114;-1.684;2023-05-10T10:37:46;16.50;70.40
52575;DHT22;38468;48.114;-1.684;2023-05-10T10:39:50;16.50;70.90
52575;DHT22;38468;48.114;-1.684;2023-05-10T10:41:52;16.50;69.70
52575;DHT22;38468;48.114;-1.684;2023-05-10T10:46:24;16.50;69.90
52575;DHT22;38468;48.114;-1.684;2023-05-10T10:48:26;16.50;70.30
52575;DHT22;38468;48.114;-1.684;2023-05-10T10:50:26;16.50;70.20
52575;DHT22;38468;48.114;-1.684;2023-05-10T10:52:37;16.50;70.50
52575;DHT22;38468;48.114;-1.684;2023-05-10T10:54:37;16.40;70.50
52575;DHT22;38468;48.114;-1.684;2023-05-10T10:56:38;16.50;71.00
52575;DHT22;38468;48.114;-1.684;2023-05-10T10:58:39;16.50;70.80
52575;DHT22;38468;48.114;-1.684;2023-05-10T11:00:40;16.50;70.90
52575;DHT22;38468;48.114;-1.684;2023-05-10T11:04:43;16.80;71.40
52575;DHT22;38468;48.114;-1.684;2023-05-10T11:06:46;17.00;71.20
52575;DHT22;38468;48.114;-1.684;2023-05-10T11:08:47;17.00;70.50
52575;DHT22;38468;48.114;-1.684;2023-05-10T11:10:51;16.90;69.70
52575;DHT22;38468;48.114;-1.684;2023-05-10T11:13:06;16.80;68.70
52575;DHT22;38468;48.114;-1.684;2023-05-10T11:15:09;16.70;69.20
52575;DHT22;38468;48.114;-1.684;2023-05-10T11:17:23;16.60;69.40
52575;DHT22;38468;48.114;-1.684;2023-05-10T11:19:27;16.50;69.80
52575;DHT22;38468;48.114;-1.684;2023-05-10T11:21:32;16.50;70.30
52575;DHT22;38468;48.114;-1.684;2023-05-10T11:25:49;16.10;72.20
52575;DHT22;38468;48.114;-1.684;2023-05-10T11:27:50;16.00;73.10
52575;DHT22;38468;48.114;-1.684;2023-05-10T11:29:51;16.00;73.40
52575;DHT22;38468;48.114;-1.684;2023-05-10T11:31:52;16.00;73.60
52575;DHT22;38468;48.114;-1.684;2023-05-10T11:33:58;15.90;73.50
52575;DHT22;38468;48.114;-1.684;2023-05-10T11:35:59;15.90;74.00
52575;DHT22;38468;48.114;-1.684;2023-05-10T11:38:00;15.80;73.80
52575;DHT22;38468;48.114;-1.684;2023-05-10T11:40:01;15.80;74.40
52575;DHT22;38468;48.114;-1.684;2023-05-10T11:42:02;15.80;74.80
52575;DHT22;38468;48.114;-1.684;2023-05-10T11:44:03;15.70;75.00
52575;DHT22;38468;48.114;-1.684;2023-05-10T11:46:06;15.90;74.70
52575;DHT22;38468;48.114;-1.684;2023-05-10T11:48:07;16.00;74.90
52575;DHT22;38468;48.114;-1.684;2023-05-10T11:50:08;16.30;75.20
52575;DHT22;38468;48.114;-1.684;2023-05-10T11:52:09;16.50;74.60
52575;DHT22;38468;48.114;-1.684;2023-05-10T11:54:11;16.70;73.40
52575;DHT22;38468;48.114;-1.684;2023-05-10T11:56:12;16.90;72.80
52575;DHT22;38468;48.114;-1.684;2023-05-10T11:58:12;16.90;72.40
52575;DHT22;38468;48.114;-1.684;2023-05-10T12:00:14;16.80;73.10
52575;DHT22;38468;48.114;-1.684;2023-05-10T12:02:14;16.70;73.30
52575;DHT22;38468;48.114;-1.684;2023-05-10T12:04:15;16.50;73.50
52575;DHT22;38468;48.114;-1.684;2023-05-10T12:06:17;16.40;73.50
52575;DHT22;38468;48.114;-1.684;2023-05-10T12:08:23;16.30;74.60
52575;DHT22;38468;48.114;-1.684;2023-05-10T12:10:26;16.20;74.20
52575;DHT22;38468;48.114;-1.684;2023-05-10T12:12:27;16.20;74.80
52575;DHT22;38468;48.114;-1.684;2023-05-10T12:14:28;16.10;74.90
52575;DHT22;38468;48.114;-1.684;2023-05-10T12:16:29;16.00;74.60
52575;DHT22;38468;48.114;-1.684;2023-05-10T12:18:30;16.00;75.20
52575;DHT22;38468;48.114;-1.684;2023-05-10T12:20:31;16.00;74.90
52575;DHT22;38468;48.114;-1.684;2023-05-10T12:22:33;15.90;74.50
52575;DHT22;38468;48.114;-1.684;2023-05-10T12:24:38;15.80;74.70
52575;DHT22;38468;48.114;-1.684;2023-05-10T12:26:39;15.80;74.40
52575;DHT22;38468;48.114;-1.684;2023-05-10T12:28:39;15.70;74.50
52575;DHT22;38468;48.114;-1.684;2023-05-10T12:30:40;15.60;74.80
52575;DHT22;38468;48.114;-1.684;2023-05-10T12:32:43;15.50;74.80
52575;DHT22;38468;48.114;-1.684;2023-05-10T12:34:46;15.50;75.00
52575;DHT22;38468;48.114;-1.684;2023-05-10T12:36:51;15.40;75.70
52575;DHT22;38468;48.114;-1.684;2023-05-10T12:39:02;15.30;75.70
52575;DHT22;38468;48.114;-1.684;2023-05-10T12:41:05;15.40;75.70
52575;DHT22;38468;48.114;-1.684;2023-05-10T12:43:06;15.40;76.00
52575;DHT22;38468;48.114;-1.684;2023-05-10T12:45:08;15.40;76.00
52575;DHT22;38468;48.114;-1.684;2023-05-10T12:47:09;15.40;75.90
52575;DHT22;38468;48.114;-1.684;2023-05-10T12:49:09;15.40;76.00
52575;DHT22;38468;48.114;-1.684;2023-05-10T12:51:11;15.40;75.60
52575;DHT22;38468;48.114;-1.684;2023-05-10T12:53:17;15.30;75.80
52575;DHT22;38468;48.114;-1.684;2023-05-10T12:55:18;15.40;76.60
52575;DHT22;38468;48.114;-1.684;2023-05-10T12:57:20;15.40;76.20
52575;DHT22;38468;48.114;-1.684;2023-05-10T12:59:21;15.40;76.20
52575;DHT22;38468;48.114;-1.684;2023-05-10T13:01:21;15.50;76.60
52575;DHT22;38468;48.114;-1.684;2023-05-10T13:03:22;15.50;76.60
52575;DHT22;38468;48.114;-1.684;2023-05-10T13:05:23;15.80;76.80
52575;DHT22;38468;48.114;-1.684;2023-05-10T13:07:23;15.90;76.50